createdAt,value
2023-11-16T00:01:18.456Z,9.25
2023-11-16T00:03:45.847Z,11.07
2023-11-16T00:06:12.741Z,5.13
2023-11-16T00:08:39.528Z,6.78
2023-11-16T00:11:08.892Z,14.88
2023-11-16T00:13:35.860Z,11.95
2023-11-16T00:16:03.849Z,7.72
2023-11-16T00:18:32.459Z,8.80
2023-11-16T00:20:59.233Z,5.57
2023-11-16T00:23:26.048Z,5.85
2023-11-16T00:25:53.012Z,5.32
2023-11-16T00:28:24.026Z,6.35
2023-11-16T00:30:50.676Z,8.50
2023-11-16T00:33:17.378Z,7.68
2023-11-16T00:35:44.114Z,11.57
2023-11-16T00:38:11.476Z,8.23
2023-11-16T00:40:38.539Z,8.15
2023-11-16T00:43:07.074Z,5.85
2023-11-16T00:45:35.352Z,6.45
2023-11-16T00:48:02.730Z,7.20
2023-11-16T00:50:29.506Z,11.93
2023-11-16T00:52:56.529Z,4.80
2023-11-16T00:55:23.284Z,11.82
2023-11-16T00:57:52.944Z,7.45
2023-11-16T01:00:20.301Z,13.05
2023-11-16T01:02:50.627Z,5.30
2023-11-16T01:05:18.916Z,3.00
2023-11-16T01:07:45.944Z,4.45
2023-11-16T01:10:17.037Z,8.80
2023-11-16T01:12:44.813Z,8.93
2023-11-16T01:15:12.307Z,9.85
2023-11-16T01:17:40.508Z,13.55
2023-11-16T01:20:08.419Z,13.52
2023-11-16T01:22:41.912Z,8.60
2023-11-16T01:25:16.556Z,9.77
2023-11-16T01:27:46.383Z,9.15
2023-11-16T01:30:14.482Z,4.57
2023-11-16T01:32:41.305Z,11.27
2023-11-16T01:35:08.619Z,5.18
2023-11-16T01:37:35.909Z,8.82
2023-11-16T01:40:02.839Z,5.13
2023-11-16T01:42:29.589Z,21.52
2023-11-16T01:44:56.269Z,8.95
2023-11-16T01:47:23.118Z,13.10
2023-11-16T01:49:49.820Z,16.55
2023-11-16T01:52:16.652Z,9.75
2023-11-16T01:54:44.409Z,16.27
2023-11-16T01:57:12.580Z,15.18
2023-11-16T01:59:39.880Z,20.00
2023-11-16T02:02:11.048Z,11.15
2023-11-16T02:04:40.661Z,21.05
2023-11-16T02:07:07.389Z,17.73
2023-11-16T02:09:34.339Z,10.50
2023-11-16T02:12:01.354Z,21.15
2023-11-16T02:14:28.134Z,13.43
2023-11-16T02:16:57.177Z,18.27
2023-11-16T02:19:31.699Z,15.80
2023-11-16T02:21:59.807Z,21.55
2023-11-16T02:24:27.709Z,15.25
2023-11-16T02:26:55.208Z,23.10
2023-11-16T02:29:22.044Z,20.75
2023-11-16T02:31:48.740Z,28.23
2023-11-16T02:34:15.507Z,8.77
2023-11-16T02:36:42.250Z,19.95
2023-11-16T02:39:09.372Z,6.95
2023-11-16T02:41:37.636Z,4.88
2023-11-16T02:44:05.199Z,9.65
2023-11-16T02:46:32.540Z,7.47
2023-11-16T02:48:59.289Z,5.53
2023-11-16T02:51:29.256Z,6.43
2023-11-16T02:53:56.198Z,3.55
2023-11-16T02:56:23.025Z,7.68
2023-11-16T02:58:49.792Z,10.55
2023-11-16T03:01:17.030Z,3.85
2023-11-16T03:03:43.923Z,6.88
2023-11-16T03:06:10.868Z,5.90
2023-11-16T03:08:38.094Z,3.60
2023-11-16T03:11:06.822Z,12.10
2023-11-16T03:13:33.638Z,4.97
2023-11-16T03:16:00.871Z,8.82
2023-11-16T03:18:27.683Z,8.00
2023-11-16T03:20:54.454Z,5.80
2023-11-16T03:23:21.144Z,7.28
2023-11-16T03:25:48.318Z,7.88
2023-11-16T03:28:17.485Z,5.03
2023-11-16T03:30:46.231Z,7.03
2023-11-16T03:33:13.561Z,4.75
2023-11-16T03:35:40.624Z,6.20
2023-11-16T03:38:07.349Z,8.65
2023-11-16T03:40:34.248Z,6.22
2023-11-16T03:43:00.988Z,5.28
2023-11-16T03:45:28.107Z,10.10
2023-11-16T03:47:54.988Z,5.40
2023-11-16T03:50:21.837Z,4.88
2023-11-16T03:52:48.533Z,5.90
2023-11-16T03:55:15.384Z,6.38
2023-11-16T03:57:42.228Z,9.15
2023-11-16T04:00:09.936Z,5.68
2023-11-16T04:02:37.105Z,12.60
2023-11-16T04:05:06.550Z,9.15
2023-11-16T04:07:35.648Z,6.90
2023-11-16T04:10:05.237Z,5.55
2023-11-16T04:12:32.265Z,13.77
2023-11-16T04:14:59.225Z,11.07
2023-11-16T04:17:27.562Z,3.40
2023-11-16T04:19:54.654Z,10.45
2023-11-16T04:22:23.469Z,8.60
2023-11-16T04:24:53.938Z,7.57
2023-11-16T04:27:21.783Z,16.25
2023-11-16T04:29:48.964Z,11.13
2023-11-16T04:32:15.762Z,13.10
2023-11-16T04:34:43.322Z,3.95
2023-11-16T04:37:11.777Z,4.32
2023-11-16T04:39:38.658Z,7.28
2023-11-16T04:42:05.716Z,8.10
2023-11-16T04:44:35.698Z,5.72
2023-11-16T04:47:03.274Z,5.00
2023-11-16T04:49:30.102Z,8.45
2023-11-16T04:51:58.680Z,5.53
2023-11-16T04:54:27.828Z,2.75
2023-11-16T04:56:54.902Z,3.03
2023-11-16T04:59:21.585Z,6.38
2023-11-16T05:01:48.347Z,7.05
2023-11-16T05:04:15.288Z,4.68
2023-11-16T05:06:42.533Z,5.78
2023-11-16T05:09:09.854Z,4.90
2023-11-16T05:11:36.819Z,1.80
2023-11-16T05:14:05.122Z,3.35
2023-11-16T05:16:32.000Z,6.03
2023-11-16T05:18:58.864Z,6.15
2023-11-16T05:21:25.699Z,7.45
2023-11-16T05:23:52.466Z,7.90
2023-11-16T05:26:19.246Z,4.53
2023-11-16T05:28:46.080Z,5.30
2023-11-16T05:31:13.120Z,10.27
2023-11-16T05:33:40.014Z,5.72
2023-11-16T05:36:07.895Z,7.93
2023-11-16T05:38:34.708Z,9.50
2023-11-16T05:41:01.545Z,7.68
2023-11-16T05:43:28.370Z,5.00
2023-11-16T05:45:55.464Z,6.15
2023-11-16T05:48:22.257Z,5.28
2023-11-16T05:50:49.157Z,8.38
2023-11-16T05:53:16.633Z,6.78
2023-11-16T05:55:43.712Z,7.10
2023-11-16T05:58:11.018Z,2.90
2023-11-16T06:00:38.933Z,5.47
2023-11-16T06:03:07.014Z,2.42
2023-11-16T06:05:36.332Z,8.88
2023-11-16T06:08:03.329Z,4.25
2023-11-16T06:10:30.165Z,7.32
2023-11-16T06:12:59.262Z,9.65
2023-11-16T06:15:27.007Z,3.80
2023-11-16T06:17:59.078Z,4.60
2023-11-16T06:20:26.152Z,8.30
2023-11-16T06:22:52.971Z,4.28
2023-11-16T06:25:19.775Z,5.40
2023-11-16T06:27:47.550Z,11.70
2023-11-16T06:30:15.596Z,7.70
2023-11-16T06:32:45.967Z,6.80
2023-11-16T06:35:13.190Z,14.55
2023-11-16T06:37:40.043Z,8.13
2023-11-16T06:40:10.990Z,11.52
2023-11-16T06:42:39.010Z,8.18
2023-11-16T06:45:07.003Z,11.52
2023-11-16T06:47:35.204Z,12.02
2023-11-16T06:50:05.765Z,9.75
2023-11-16T06:52:37.304Z,12.15
2023-11-16T06:55:05.686Z,11.93
2023-11-16T06:57:32.670Z,8.23
2023-11-16T06:59:59.436Z,13.70
2023-11-16T07:02:26.379Z,7.78
2023-11-16T07:04:53.121Z,8.55
2023-11-16T07:07:19.860Z,10.85
2023-11-16T07:09:47.910Z,13.85
2023-11-16T07:12:16.752Z,7.90
2023-11-16T07:14:51.521Z,11.13
2023-11-16T07:17:21.411Z,10.70
2023-11-16T07:19:51.401Z,9.55
2023-11-16T07:22:19.496Z,10.27
2023-11-16T07:24:46.955Z,12.98
2023-11-16T07:27:14.935Z,9.27
2023-11-16T07:29:45.850Z,17.15
2023-11-16T07:32:13.855Z,19.70
2023-11-16T07:34:42.612Z,20.83
2023-11-16T07:37:09.653Z,20.05
2023-11-16T07:39:38.685Z,13.70
2023-11-16T07:42:06.092Z,22.15
2023-11-16T07:44:33.476Z,19.73
2023-11-16T07:47:00.615Z,13.25
2023-11-16T07:49:28.235Z,14.45
2023-11-16T07:51:58.465Z,17.98
2023-11-16T07:54:26.515Z,10.43
2023-11-16T07:56:57.700Z,11.60
2023-11-16T07:59:32.456Z,7.72
2023-11-16T08:02:03.005Z,8.13
2023-11-16T08:04:32.824Z,19.13
2023-11-16T08:07:01.403Z,9.10
2023-11-16T08:09:30.636Z,7.82
2023-11-16T08:11:58.706Z,5.57
2023-11-16T08:14:26.900Z,12.25
2023-11-16T08:17:00.318Z,4.85
2023-11-16T08:19:28.181Z,7.50
2023-11-16T08:21:57.581Z,7.88
2023-11-16T08:24:25.417Z,3.90
2023-11-16T08:26:52.413Z,5.63
2023-11-16T08:29:19.476Z,3.80
2023-11-16T08:31:54.230Z,7.18
2023-11-16T08:34:21.826Z,3.22
2023-11-16T08:36:48.754Z,4.25
2023-11-16T08:39:18.773Z,13.32
2023-11-16T08:41:45.772Z,22.90
2023-11-16T08:44:12.669Z,11.95
2023-11-16T08:46:47.437Z,8.55
2023-11-16T08:49:14.266Z,11.77
2023-11-16T08:51:41.102Z,14.00
2023-11-16T08:54:10.171Z,11.07
2023-11-16T08:56:41.739Z,10.82
2023-11-16T08:59:12.557Z,6.15
2023-11-16T09:01:40.385Z,6.55
2023-11-16T09:04:10.606Z,7.47
2023-11-16T09:06:38.730Z,10.75
2023-11-16T09:09:25.636Z,8.10
2023-11-16T09:11:53.909Z,4.70
2023-11-16T09:14:20.698Z,6.50
2023-11-16T09:16:51.457Z,5.10
2023-11-16T09:19:24.070Z,4.47
2023-11-16T09:21:51.929Z,9.60
2023-11-16T09:24:18.632Z,6.18
2023-11-16T09:26:47.501Z,12.30
2023-11-16T09:29:14.180Z,5.47
2023-11-16T09:31:42.297Z,6.70
2023-11-16T09:34:10.834Z,7.72
2023-11-16T09:36:38.574Z,6.65
2023-11-16T09:39:08.559Z,7.22
2023-11-16T09:41:37.785Z,12.25
2023-11-16T09:44:08.160Z,5.47
2023-11-16T09:46:38.318Z,10.23
2023-11-16T09:49:08.101Z,8.13
2023-11-16T09:51:37.934Z,11.77
2023-11-16T09:54:09.758Z,8.00
2023-11-16T09:56:42.582Z,25.27
2023-11-16T09:59:15.488Z,29.88
2023-11-16T10:01:54.394Z,40.90
2023-11-16T10:04:21.669Z,16.52
2023-11-16T10:06:51.893Z,15.23
2023-11-16T10:09:19.001Z,6.05
2023-11-16T10:11:46.311Z,4.63
2023-11-16T10:14:13.619Z,4.03
2023-11-16T10:16:40.811Z,4.20
2023-11-16T10:19:12.061Z,10.32
2023-11-16T10:21:44.536Z,7.17
2023-11-16T10:24:11.770Z,7.85
2023-11-16T10:26:40.767Z,8.60
2023-11-16T10:29:08.164Z,12.52
2023-11-16T10:31:35.756Z,9.73
2023-11-16T10:34:05.992Z,9.65
2023-11-16T10:36:33.679Z,6.43
2023-11-16T10:39:02.480Z,6.93
2023-11-16T10:41:30.833Z,5.60
2023-11-16T10:44:00.319Z,7.35
2023-11-16T10:46:29.215Z,9.25
2023-11-16T10:48:56.281Z,5.45
2023-11-16T10:51:25.523Z,9.95
2023-11-16T10:53:54.959Z,9.48
2023-11-16T10:56:22.777Z,10.43
2023-11-16T10:58:51.819Z,8.25
2023-11-16T11:01:20.157Z,20.08
2023-11-16T11:03:49.662Z,9.45
2023-11-16T11:06:21.445Z,8.35
2023-11-16T11:08:49.945Z,10.55
2023-11-16T11:11:27.760Z,14.30
2023-11-16T11:13:59.668Z,6.65
2023-11-16T11:16:29.041Z,6.07
2023-11-16T11:18:58.446Z,6.78
2023-11-16T11:21:28.268Z,4.55
2023-11-16T11:24:06.297Z,6.22
2023-11-16T11:26:51.834Z,10.02
2023-11-16T11:29:24.958Z,11.43
2023-11-16T11:32:15.617Z,7.15
2023-11-16T11:34:44.825Z,4.70
2023-11-16T11:37:15.641Z,2.78
2023-11-16T11:39:47.412Z,5.97
2023-11-16T11:42:15.537Z,5.10
2023-11-16T11:44:53.298Z,5.50
2023-11-16T11:47:25.443Z,8.57
2023-11-16T11:52:23.855Z,8.70
2023-11-16T11:54:51.312Z,6.57
2023-11-16T11:57:27.445Z,6.57
2023-11-16T11:59:59.635Z,7.75
2023-11-16T12:02:26.596Z,8.95
2023-11-16T12:04:54.450Z,9.18
2023-11-16T12:07:21.383Z,13.93
2023-11-16T12:09:51.130Z,12.32
2023-11-16T12:12:19.048Z,21.23
2023-11-16T12:14:49.935Z,8.63
2023-11-16T12:17:18.413Z,11.75
2023-11-16T12:19:55.006Z,7.35
2023-11-16T12:22:22.228Z,9.20
2023-11-16T12:24:52.247Z,8.80
2023-11-16T12:27:21.930Z,10.98
2023-11-16T12:30:01.808Z,17.75
2023-11-16T12:32:28.498Z,12.90
2023-11-16T12:34:55.555Z,6.57
2023-11-16T12:37:23.279Z,29.40
2023-11-16T12:39:51.518Z,7.93
2023-11-16T12:42:19.256Z,23.08
2023-11-16T12:44:46.316Z,54.00
2023-11-16T12:47:21.861Z,14.32
2023-11-16T12:49:50.557Z,70.82
2023-11-16T12:52:17.419Z,55.17
2023-11-16T12:54:44.148Z,70.45
2023-11-16T12:57:11.259Z,41.00
2023-11-16T12:59:38.212Z,11.63
2023-11-16T13:02:06.407Z,13.45
2023-11-16T13:04:33.655Z,11.40
2023-11-16T13:07:00.688Z,6.97
2023-11-16T13:09:27.602Z,14.85
2023-11-16T13:11:58.378Z,14.27
2023-11-16T13:14:29.269Z,13.02
2023-11-16T13:16:56.291Z,10.32
2023-11-16T13:19:23.017Z,9.93
2023-11-16T13:21:49.825Z,10.88
2023-11-16T13:24:16.580Z,13.93
2023-11-16T13:26:43.496Z,18.38
2023-11-16T13:29:13.294Z,8.60
2023-11-16T13:31:40.687Z,7.95
2023-11-16T13:34:07.545Z,8.35
2023-11-16T13:36:35.916Z,12.73
2023-11-16T13:39:05.437Z,10.98
2023-11-16T13:41:32.182Z,4.78
2023-11-16T13:43:58.988Z,5.55
2023-11-16T13:46:26.910Z,8.45
2023-11-16T13:48:53.788Z,6.13
2023-11-16T13:51:20.583Z,16.52
2023-11-16T13:53:49.791Z,5.82
2023-11-16T13:56:17.154Z,7.00
2023-11-16T13:58:44.263Z,9.75
2023-11-16T14:01:13.792Z,12.98
2023-11-16T14:03:40.597Z,12.57
2023-11-16T14:06:08.170Z,9.55
2023-11-16T14:08:35.013Z,21.08
2023-11-16T14:11:02.217Z,7.55
2023-11-16T14:13:29.286Z,12.80
2023-11-16T14:16:02.488Z,10.70
2023-11-16T14:18:34.514Z,6.40
2023-11-16T14:21:01.515Z,6.78
2023-11-16T14:23:35.618Z,5.53
2023-11-16T14:26:12.569Z,9.13
2023-11-16T14:28:39.458Z,21.48
2023-11-16T14:31:07.167Z,10.52
2023-11-16T14:33:35.307Z,6.47
2023-11-16T14:36:02.258Z,6.05
2023-11-16T14:38:29.065Z,7.95
2023-11-16T14:40:55.901Z,8.50
2023-11-16T14:43:22.677Z,7.38
2023-11-16T14:45:49.520Z,9.48
2023-11-16T14:48:16.428Z,5.60
2023-11-16T14:50:44.117Z,5.75
2023-11-16T14:53:12.960Z,6.47
2023-11-16T14:55:42.270Z,5.13
2023-11-16T14:58:09.072Z,6.75
2023-11-16T15:00:38.320Z,6.22
2023-11-16T15:03:05.754Z,3.47
2023-11-16T15:05:37.499Z,4.97
2023-11-16T15:08:06.529Z,4.70
2023-11-16T15:10:33.412Z,7.68
2023-11-16T15:13:00.407Z,8.85
2023-11-16T15:15:27.904Z,7.03
2023-11-16T15:17:55.125Z,5.38
2023-11-16T15:20:27.262Z,4.43
2023-11-16T15:22:57.335Z,2.88
2023-11-16T15:25:24.584Z,6.43
2023-11-16T15:27:52.304Z,7.00
2023-11-16T15:30:20.460Z,3.70
2023-11-16T15:32:47.884Z,7.05
2023-11-16T15:35:15.460Z,3.22
2023-11-16T15:37:42.424Z,8.85
2023-11-16T15:40:09.732Z,3.65
2023-11-16T15:42:39.052Z,3.55
2023-11-16T15:45:07.815Z,2.90
2023-11-16T15:47:35.480Z,3.38
2023-11-16T15:50:02.380Z,2.35
2023-11-16T15:52:29.301Z,9.55
2023-11-16T15:54:56.195Z,6.57
2023-11-16T15:57:28.208Z,12.15
2023-11-16T15:59:59.951Z,8.80
2023-11-16T16:02:30.262Z,5.85
2023-11-16T16:04:58.840Z,4.73
2023-11-16T16:07:28.910Z,4.10
2023-11-16T16:09:57.459Z,4.53
2023-11-16T16:12:26.974Z,8.77
2023-11-16T16:14:53.871Z,4.20
2023-11-16T16:17:21.122Z,4.18
2023-11-16T16:19:48.323Z,9.45
2023-11-16T16:22:16.021Z,6.60
2023-11-16T16:24:43.777Z,5.50
2023-11-16T16:27:11.568Z,5.18
2023-11-16T16:29:41.488Z,6.75
2023-11-16T16:32:11.650Z,5.88
2023-11-16T16:34:38.478Z,8.18
2023-11-16T16:37:05.520Z,6.47
2023-11-16T16:39:36.059Z,8.77
2023-11-16T16:42:03.605Z,6.03
2023-11-16T16:44:30.407Z,4.18
2023-11-16T16:46:57.217Z,7.45
2023-11-16T16:49:24.162Z,15.07
2023-11-16T16:51:51.025Z,7.70
2023-11-16T16:54:18.110Z,9.15
2023-11-16T16:56:46.338Z,4.80
2023-11-16T16:59:15.543Z,5.88
2023-11-16T17:01:43.332Z,6.45
2023-11-16T17:04:10.611Z,4.63
2023-11-16T17:06:38.278Z,5.75
2023-11-16T17:09:05.638Z,5.45
2023-11-16T17:11:32.634Z,3.50
2023-11-16T17:13:59.427Z,4.45
2023-11-16T17:16:26.626Z,5.13
2023-11-16T17:18:54.185Z,6.95
2023-11-16T17:21:24.098Z,4.75
2023-11-16T17:23:55.291Z,5.13
2023-11-16T17:26:22.527Z,6.83
2023-11-16T17:28:49.983Z,8.25
2023-11-16T17:31:18.641Z,17.65
2023-11-16T17:33:45.886Z,7.38
2023-11-16T17:36:12.872Z,9.90
2023-11-16T17:38:39.794Z,9.02
2023-11-16T17:41:07.169Z,9.85
2023-11-16T17:43:41.975Z,5.18
2023-11-16T17:46:09.971Z,5.50
2023-11-16T17:48:37.266Z,6.80
2023-11-16T17:51:05.829Z,5.97
2023-11-16T17:53:33.455Z,4.75
2023-11-16T17:56:01.465Z,10.50
2023-11-16T17:58:29.688Z,8.35
2023-11-16T18:00:56.615Z,8.35
2023-11-16T18:03:23.398Z,5.93
2023-11-16T18:05:50.221Z,6.10
2023-11-16T18:08:17.176Z,7.05
2023-11-16T18:10:48.502Z,6.15
2023-11-16T18:13:17.506Z,23.20
2023-11-16T18:15:45.349Z,14.73
2023-11-16T18:18:12.616Z,15.32
2023-11-16T18:20:41.239Z,6.38
2023-11-16T18:23:10.204Z,11.88
2023-11-16T18:25:41.854Z,28.42
2023-11-16T18:28:14.951Z,11.88
2023-11-16T18:30:43.900Z,5.97
2023-11-16T18:33:11.471Z,13.43
2023-11-16T18:35:41.969Z,10.65
2023-11-16T18:38:11.928Z,25.08
2023-11-16T18:40:43.125Z,93.25
2023-11-16T18:43:14.450Z,49.08
2023-11-16T18:45:41.320Z,16.80
2023-11-16T18:48:11.239Z,11.80
2023-11-16T18:50:39.066Z,20.05
2023-11-16T18:53:05.786Z,18.13
2023-11-16T18:55:32.829Z,10.02
2023-11-16T18:58:00.332Z,35.53
2023-11-16T19:00:27.201Z,11.93
2023-11-16T19:02:58.957Z,12.65
2023-11-16T19:05:25.843Z,9.20
2023-11-16T19:07:52.718Z,8.82
2023-11-16T19:10:21.857Z,24.85
2023-11-16T19:12:48.885Z,63.30
2023-11-16T19:15:15.685Z,26.90
2023-11-16T19:17:42.719Z,5.88
2023-11-16T19:20:19.298Z,6.00
2023-11-16T19:22:46.170Z,12.10
2023-11-16T19:25:15.776Z,37.15
2023-11-16T19:27:43.258Z,26.58
2023-11-16T19:30:15.337Z,13.77
2023-11-16T19:32:43.532Z,50.40
2023-11-16T19:35:10.370Z,46.50
2023-11-16T19:37:37.144Z,15.35
2023-11-16T19:40:06.723Z,20.10
2023-11-16T19:42:33.464Z,12.90
2023-11-16T19:45:00.213Z,7.60
2023-11-16T19:47:33.254Z,12.75
2023-11-16T19:50:08.308Z,59.33
2023-11-16T19:52:37.161Z,35.30
2023-11-16T19:55:05.827Z,45.53
2023-11-16T19:57:33.201Z,419.38
2023-11-16T20:00:05.152Z,149.10
2023-11-16T20:02:32.142Z,257.75
2023-11-16T20:05:00.436Z,564.50
2023-11-16T20:07:29.892Z,130.70
2023-11-16T20:09:57.891Z,112.25
2023-11-16T20:12:25.018Z,11.25
2023-11-16T20:14:58.074Z,7.95
2023-11-16T20:17:26.883Z,12.30
2023-11-16T20:19:54.356Z,18.70
2023-11-16T20:22:21.134Z,19.77
2023-11-16T20:24:48.370Z,4.93
2023-11-16T20:27:16.062Z,3.42
2023-11-16T20:29:43.159Z,5.05
2023-11-16T20:32:10.508Z,6.47
2023-11-16T20:34:37.654Z,8.13
2023-11-16T20:37:06.733Z,84.75
2023-11-16T20:39:34.581Z,11.65
2023-11-16T20:42:01.523Z,97.18
2023-11-16T20:44:28.444Z,139.43
2023-11-16T20:46:55.799Z,58.63
2023-11-16T20:49:23.017Z,81.88
2023-11-16T20:51:50.056Z,62.65
2023-11-16T20:54:17.041Z,73.50
2023-11-16T20:56:43.846Z,118.47
2023-11-16T20:59:10.681Z,311.85
2023-11-16T21:01:37.515Z,203.13
2023-11-16T21:04:05.655Z,294.08
2023-11-16T21:06:34.955Z,419.85
2023-11-16T21:09:03.492Z,618.08
2023-11-16T21:11:30.718Z,266.25
2023-11-16T21:13:57.456Z,77.25
2023-11-16T21:16:24.235Z,156.23
2023-11-16T21:18:51.016Z,300.67
2023-11-16T21:21:17.988Z,347.70
2023-11-16T21:23:44.768Z,252.40
2023-11-16T21:26:12.144Z,76.18
2023-11-16T21:28:41.080Z,163.88
2023-11-16T21:31:13.343Z,297.33
2023-11-16T21:36:09.379Z,226.98
2023-11-16T21:38:36.218Z,202.57
2023-11-16T21:41:03.189Z,131.85
2023-11-16T21:43:31.079Z,297.75
2023-11-16T21:45:59.244Z,56.80
2023-11-16T21:48:26.088Z,740.22
2023-11-16T21:50:55.845Z,497.67
2023-11-16T21:53:22.843Z,479.77
2023-11-16T21:55:50.591Z,584.03
2023-11-16T21:58:17.543Z,508.42
2023-11-16T22:00:46.886Z,460.73
2023-11-16T22:03:13.720Z,308.13
2023-11-16T22:05:40.689Z,407.67
2023-11-16T22:08:07.461Z,619.95
2023-11-16T22:10:34.259Z,565.95
2023-11-16T22:13:01.017Z,77.20
2023-11-16T22:15:27.818Z,210.75
2023-11-16T22:17:54.766Z,426.45
2023-11-16T22:20:21.583Z,387.90
2023-11-16T22:22:49.921Z,318.73
2023-11-16T22:25:20.585Z,257.67
2023-11-16T22:27:48.799Z,269.35
2023-11-16T22:30:24.729Z,159.85
2023-11-16T22:32:51.940Z,38.30
2023-11-16T22:35:19.222Z,268.55
2023-11-16T22:37:47.088Z,235.13
2023-11-16T22:40:15.152Z,461.65
2023-11-16T22:42:42.316Z,747.38
2023-11-16T22:45:13.895Z,338.17
2023-11-16T22:47:45.088Z,457.45
2023-11-16T22:50:12.943Z,144.45
2023-11-16T22:52:40.164Z,825.53
2023-11-16T22:55:11.641Z,625.28
2023-11-16T22:57:39.400Z,19.98
2023-11-16T23:00:17.122Z,39.17
2023-11-16T23:02:43.899Z,75.22
2023-11-16T23:05:11.853Z,31.60
2023-11-16T23:07:39.338Z,12.90
2023-11-16T23:10:06.744Z,15.65
2023-11-16T23:12:33.479Z,17.50
2023-11-16T23:15:00.308Z,20.67
2023-11-16T23:17:27.935Z,53.72
2023-11-16T23:19:54.743Z,38.50
2023-11-16T23:22:22.025Z,10.32
2023-11-16T23:24:49.086Z,7.85
2023-11-16T23:27:15.970Z,9.32
2023-11-16T23:29:45.748Z,5.18
2023-11-16T23:32:12.848Z,7.55
2023-11-16T23:34:41.592Z,4.93
2023-11-16T23:37:11.856Z,5.18
2023-11-16T23:39:38.568Z,7.28
2023-11-16T23:42:05.637Z,7.10
2023-11-16T23:44:32.431Z,5.05
2023-11-16T23:47:00.870Z,7.53
2023-11-16T23:49:28.216Z,4.93
2023-11-16T23:51:54.982Z,3.75
2023-11-16T23:54:21.713Z,7.28
2023-11-16T23:56:48.546Z,4.18
2023-11-16T23:59:15.848Z,6.35
